createdAt,value
2023-03-29T17:45:09.276Z,68.78
2023-03-29T17:46:09.246Z,69.25
2023-03-29T17:47:09.393Z,69.05
2023-03-29T17:48:09.258Z,68.86
2023-03-29T17:49:09.175Z,69.19
2023-03-29T17:50:10.317Z,69.00
2023-03-29T17:51:10.294Z,68.29
2023-03-29T17:52:10.279Z,68.51
2023-03-29T17:53:10.293Z,68.68
2023-03-29T17:54:10.239Z,69.36
2023-03-29T17:55:10.229Z,69.48
2023-03-29T17:56:10.217Z,68.68
2023-03-29T17:57:10.227Z,65.93
2023-03-29T17:58:10.203Z,68.63
2023-03-29T17:59:10.268Z,68.22
2023-03-29T18:00:10.135Z,68.42
2023-03-29T18:01:10.180Z,67.13
2023-03-29T18:02:10.156Z,68.46
2023-03-29T18:03:10.150Z,69.94
2023-03-29T18:04:10.087Z,68.93
2023-03-29T18:05:10.056Z,71.42
2023-03-29T18:06:10.051Z,71.07
2023-03-29T18:07:10.029Z,68.49
2023-03-29T18:08:10.064Z,68.97
2023-03-29T18:09:09.989Z,67.84
2023-03-29T18:10:09.987Z,67.88
2023-03-29T18:11:09.970Z,69.42
2023-03-29T18:12:09.964Z,69.24
2023-03-29T18:13:09.953Z,68.06
2023-03-29T18:14:09.912Z,67.06
2023-03-29T18:15:09.907Z,68.60
2023-03-29T18:16:10.001Z,69.86
2023-03-29T18:17:09.928Z,68.28
2023-03-29T18:18:09.897Z,68.94
2023-03-29T18:19:09.822Z,67.71
2023-03-29T18:20:09.806Z,67.36
2023-03-29T18:21:09.783Z,67.36
2023-03-29T18:22:09.772Z,68.90
2023-03-29T18:23:09.796Z,70.66
2023-03-29T18:24:09.730Z,68.65
2023-03-29T18:25:09.763Z,68.99
2023-03-29T18:26:09.728Z,69.69
2023-03-29T18:27:09.679Z,68.70
2023-03-29T18:28:09.683Z,67.97
2023-03-29T18:29:09.968Z,68.90
2023-03-29T18:30:10.883Z,70.21
2023-03-29T18:31:09.655Z,66.18
2023-03-29T18:32:09.621Z,66.10
2023-03-29T18:33:09.652Z,69.49
2023-03-29T18:34:09.556Z,68.14
2023-03-29T18:35:09.545Z,67.96
2023-03-29T18:36:12.214Z,66.55
2023-03-29T18:37:10.531Z,68.60
2023-03-29T18:38:09.529Z,70.91
2023-03-29T18:39:09.485Z,68.70
2023-03-29T18:40:09.473Z,69.25
2023-03-29T18:41:09.449Z,68.12
2023-03-29T18:42:11.657Z,69.15
2023-03-29T18:43:09.449Z,66.71
2023-03-29T18:44:09.393Z,67.74
2023-03-29T18:45:09.364Z,69.96
2023-03-29T18:46:09.377Z,69.15
2023-03-29T18:47:09.472Z,67.88
2023-03-29T18:48:09.426Z,67.86
2023-03-29T18:49:09.325Z,68.89
2023-03-29T18:50:09.291Z,68.27
2023-03-29T18:51:09.359Z,68.07
2023-03-29T18:52:09.253Z,68.23
2023-03-29T18:53:09.284Z,67.34
2023-03-29T18:54:09.228Z,69.50
2023-03-29T18:55:09.230Z,68.39
2023-03-29T18:56:09.198Z,68.30
2023-03-29T18:57:09.285Z,67.21
2023-03-29T18:58:09.230Z,67.23
2023-03-29T18:59:09.161Z,69.19
2023-03-29T19:00:09.181Z,71.15
2023-03-29T19:01:09.120Z,67.64
2023-03-29T19:02:09.170Z,67.72
2023-03-29T19:03:09.223Z,68.03
2023-03-29T19:04:09.119Z,68.44
2023-03-29T19:05:09.067Z,69.47
2023-03-29T19:06:09.036Z,68.25
2023-03-29T19:07:09.031Z,66.80
2023-03-29T19:08:09.056Z,68.25
2023-03-29T19:09:09.005Z,68.14
2023-03-29T19:10:08.968Z,69.00
2023-03-29T19:11:08.930Z,68.10
2023-03-29T19:12:08.929Z,69.46
2023-03-29T19:13:08.897Z,68.85
2023-03-29T19:14:08.949Z,69.85
2023-03-29T19:15:08.976Z,67.01
2023-03-29T19:16:09.126Z,67.68
2023-03-29T19:17:08.831Z,67.94
2023-03-29T19:18:08.903Z,67.33
2023-03-29T19:19:08.840Z,68.91
2023-03-29T19:20:08.778Z,69.55
2023-03-29T19:21:08.756Z,69.10
2023-03-29T19:22:08.744Z,68.49
2023-03-29T19:23:08.743Z,67.10
2023-03-29T19:24:08.763Z,65.90
2023-03-29T19:25:08.712Z,69.44
2023-03-29T19:26:08.680Z,70.81
2023-03-29T19:27:10.708Z,68.87
2023-03-29T19:28:08.656Z,68.72
2023-03-29T19:29:08.656Z,68.61
2023-03-29T19:30:08.597Z,69.53
2023-03-29T19:31:09.654Z,68.75
2023-03-29T19:32:08.598Z,69.81
2023-03-29T19:33:08.635Z,67.73
2023-03-29T19:34:08.570Z,70.28
2023-03-29T19:35:08.532Z,70.77
2023-03-29T19:36:08.536Z,69.93
2023-03-29T19:37:08.494Z,68.72
2023-03-29T19:38:08.487Z,69.26
2023-03-29T19:39:08.489Z,68.91
2023-03-29T19:40:08.452Z,67.85
2023-03-29T19:41:08.416Z,66.75
2023-03-29T19:42:08.398Z,69.67
2023-03-29T19:43:08.383Z,69.42
2023-03-29T19:44:08.378Z,68.84
2023-03-29T19:45:09.349Z,69.22
2023-03-29T19:46:08.455Z,67.23
2023-03-29T19:47:08.345Z,68.63
2023-03-29T19:48:12.321Z,66.68
2023-03-29T19:49:09.373Z,69.53
2023-03-29T19:50:08.265Z,70.22
2023-03-29T19:51:08.249Z,69.04
2023-03-29T19:52:08.264Z,66.33
2023-03-29T19:53:08.216Z,68.28
2023-03-29T19:54:08.230Z,67.07
2023-03-29T19:55:08.178Z,67.35
2023-03-29T19:56:08.155Z,68.41
2023-03-29T19:57:08.158Z,67.63
2023-03-29T19:58:08.146Z,67.54
2023-03-29T19:59:08.172Z,67.53
2023-03-29T20:00:08.167Z,68.31
2023-03-29T20:01:08.073Z,68.12
2023-03-29T20:02:08.139Z,66.90
2023-03-29T20:03:08.078Z,67.91
2023-03-29T20:04:08.073Z,68.47
2023-03-29T20:05:08.026Z,68.20
2023-03-29T20:06:07.995Z,68.15
2023-03-29T20:07:07.972Z,67.61
2023-03-29T20:08:07.958Z,68.96
2023-03-29T20:09:07.982Z,66.07
2023-03-29T20:10:07.926Z,65.29
2023-03-29T20:11:07.907Z,64.89
2023-03-29T20:12:07.895Z,67.39
2023-03-29T20:13:07.881Z,67.39
2023-03-29T20:14:07.878Z,65.27
2023-03-29T20:15:07.852Z,65.29
2023-03-29T20:16:07.908Z,67.51
2023-03-29T20:17:07.797Z,68.50
2023-03-29T20:18:07.811Z,67.34
2023-03-29T20:19:07.808Z,66.53
2023-03-29T20:20:07.755Z,65.47
2023-03-29T20:21:07.749Z,65.87
2023-03-29T20:22:07.711Z,66.74
2023-03-29T20:23:07.715Z,64.72
2023-03-29T20:24:07.743Z,67.04
2023-03-29T20:25:07.685Z,68.72
2023-03-29T20:26:07.649Z,68.80
2023-03-29T20:27:07.641Z,65.86
2023-03-29T20:28:07.629Z,67.20
2023-03-29T20:29:07.677Z,68.85
2023-03-29T20:30:07.593Z,69.02
2023-03-29T20:31:07.564Z,67.59
2023-03-29T20:32:07.651Z,66.15
2023-03-29T20:33:07.581Z,63.86
2023-03-29T20:34:07.545Z,64.35
2023-03-29T20:35:07.493Z,65.31
2023-03-29T20:36:07.616Z,64.00
2023-03-29T20:37:07.506Z,62.49
2023-03-29T20:38:07.450Z,63.98
2023-03-29T20:39:07.464Z,66.55
2023-03-29T20:40:07.417Z,67.14
2023-03-29T20:41:07.388Z,64.69
2023-03-29T20:42:07.373Z,66.60
2023-03-29T20:43:08.382Z,67.47
2023-03-29T20:44:07.393Z,67.32
2023-03-29T20:45:07.321Z,67.03
2023-03-29T20:46:07.334Z,66.05
2023-03-29T20:47:07.294Z,65.83
2023-03-29T20:48:07.314Z,65.99
2023-03-29T20:49:07.364Z,65.96
2023-03-29T20:50:07.273Z,66.20
2023-03-29T20:51:07.236Z,66.10
2023-03-29T20:52:07.203Z,68.78
2023-03-29T20:53:07.197Z,67.02
2023-03-29T20:54:07.297Z,67.90
2023-03-29T20:55:07.160Z,66.46
2023-03-29T20:56:07.136Z,66.60
2023-03-29T20:57:07.156Z,65.09
2023-03-29T20:58:07.111Z,67.70
2023-03-29T20:59:07.132Z,68.05
2023-03-29T21:00:07.069Z,67.51
2023-03-29T21:01:07.237Z,67.05
2023-03-29T21:02:07.094Z,66.58
2023-03-29T21:03:07.094Z,66.84
2023-03-29T21:04:07.030Z,66.99
2023-03-29T21:05:06.990Z,67.63
2023-03-29T21:06:06.983Z,65.14
2023-03-29T21:07:07.025Z,61.26
2023-03-29T21:08:06.949Z,65.97
2023-03-29T21:09:06.976Z,66.62
2023-03-29T21:10:06.919Z,66.32
2023-03-29T21:11:06.881Z,66.32
2023-03-29T21:12:06.874Z,66.45
2023-03-29T21:13:06.852Z,66.17
2023-03-29T21:14:06.864Z,65.26
2023-03-29T21:15:06.809Z,65.83
2023-03-29T21:16:06.854Z,66.04
2023-03-29T21:17:06.812Z,66.96
2023-03-29T21:18:06.851Z,68.41
2023-03-29T21:19:06.778Z,65.25
2023-03-29T21:20:06.742Z,65.68
2023-03-29T21:21:06.726Z,64.57
2023-03-29T21:22:06.738Z,64.99
2023-03-29T21:23:39.056Z,66.65
2023-03-29T21:24:06.717Z,66.26
2023-03-29T21:25:06.677Z,64.74
2023-03-29T21:26:06.651Z,65.27
2023-03-29T21:27:06.616Z,65.56
2023-03-29T21:28:06.624Z,66.51
2023-03-29T21:29:06.632Z,65.11
2023-03-29T21:30:06.580Z,64.23
2023-03-29T21:31:06.816Z,65.99
2023-03-29T21:32:06.609Z,63.77
2023-03-29T21:33:06.586Z,66.22
2023-03-29T21:34:06.564Z,66.23
2023-03-29T21:35:07.490Z,66.55
2023-03-29T21:36:06.545Z,63.58
2023-03-29T21:37:06.478Z,65.68
2023-03-29T21:38:06.444Z,67.96
2023-03-29T21:39:06.459Z,66.37
2023-03-29T21:40:06.397Z,64.70
2023-03-29T21:41:06.610Z,65.32
2023-03-29T21:42:06.444Z,65.19
2023-03-29T21:43:06.379Z,64.07
2023-03-29T21:44:06.399Z,62.07
2023-03-29T21:45:06.324Z,64.08
2023-03-29T21:46:06.360Z,64.71
2023-03-29T21:47:06.358Z,66.14
2023-03-29T21:48:06.317Z,65.90
2023-03-29T21:49:06.316Z,65.57
2023-03-29T21:50:06.229Z,65.75
2023-03-29T21:51:06.483Z,63.66
2023-03-29T21:52:06.202Z,64.94
2023-03-29T21:53:06.182Z,62.77
2023-03-29T21:54:06.170Z,61.78
2023-03-29T21:55:07.178Z,65.38
2023-03-29T21:56:06.168Z,64.38
2023-03-29T21:57:06.157Z,66.52
2023-03-29T21:58:06.136Z,65.17
2023-03-29T21:59:06.086Z,65.99
2023-03-29T22:00:06.157Z,64.38
2023-03-29T22:01:06.286Z,66.45
2023-03-29T22:02:06.100Z,66.31
2023-03-29T22:03:06.037Z,67.50
2023-03-29T22:04:06.001Z,68.67
2023-03-29T22:05:06.008Z,66.39
2023-03-29T22:06:05.966Z,64.71
2023-03-29T22:07:05.965Z,64.18
2023-03-29T22:08:05.940Z,65.79
2023-03-29T22:09:05.923Z,65.50
2023-03-29T22:10:05.930Z,67.83
2023-03-29T22:11:07.537Z,66.58
2023-03-29T22:12:05.862Z,65.55
2023-03-29T22:13:05.900Z,65.82
2023-03-29T22:14:05.828Z,64.81
2023-03-29T22:15:05.872Z,64.69
2023-03-29T22:16:05.918Z,65.12
2023-03-29T22:17:05.833Z,63.13
2023-03-29T22:18:05.833Z,65.32
2023-03-29T22:19:05.759Z,64.18
2023-03-29T22:20:05.770Z,62.73
2023-03-29T22:21:05.829Z,63.47
2023-03-29T22:22:05.713Z,65.08
2023-03-29T22:23:05.715Z,64.49
2023-03-29T22:24:05.689Z,67.01
2023-03-29T22:25:05.733Z,65.46
2023-03-29T22:26:05.659Z,66.62
2023-03-29T22:27:05.622Z,65.77
2023-03-29T22:28:05.645Z,66.03
2023-03-29T22:29:05.703Z,64.36
2023-03-29T22:30:05.655Z,63.63
2023-03-29T22:31:05.693Z,66.68
2023-03-29T22:32:05.556Z,66.19
2023-03-29T22:33:05.560Z,63.70
2023-03-29T22:34:05.496Z,65.75
2023-03-29T22:35:05.528Z,63.91
2023-03-29T22:36:05.466Z,65.38
2023-03-29T22:37:05.456Z,65.89
2023-03-29T22:38:05.429Z,63.33
2023-03-29T22:39:05.421Z,65.75
2023-03-29T22:40:05.427Z,67.04
2023-03-29T22:41:05.669Z,64.98
2023-03-29T22:42:05.355Z,65.70
2023-03-29T22:43:05.540Z,64.63
2023-03-29T22:44:06.328Z,64.38
2023-03-29T22:45:05.356Z,64.73
2023-03-29T22:46:05.353Z,64.50
2023-03-29T22:47:05.272Z,64.98
2023-03-29T22:48:05.299Z,64.73
2023-03-29T22:49:05.279Z,65.06
2023-03-29T22:50:05.260Z,66.29
2023-03-29T22:51:05.525Z,64.28
2023-03-29T22:52:05.193Z,64.61
2023-03-29T22:53:05.188Z,66.25
2023-03-29T22:54:05.257Z,65.74
2023-03-29T22:55:05.193Z,64.53
2023-03-29T22:56:05.142Z,66.95
2023-03-29T22:57:05.157Z,66.30
2023-03-29T22:58:05.141Z,65.76
2023-03-29T22:59:05.080Z,66.06
2023-03-29T23:00:05.108Z,66.45
2023-03-29T23:01:05.391Z,69.03
2023-03-29T23:02:05.164Z,66.76
2023-03-29T23:03:05.083Z,65.34
2023-03-29T23:04:05.014Z,64.52
2023-03-29T23:05:05.032Z,65.39
2023-03-29T23:06:04.958Z,64.80
2023-03-29T23:07:04.982Z,66.27
2023-03-29T23:08:05.059Z,66.45
2023-03-29T23:09:04.931Z,62.72
2023-03-29T23:10:04.931Z,65.29
2023-03-29T23:11:05.051Z,63.95
2023-03-29T23:12:04.873Z,66.31
2023-03-29T23:13:04.855Z,64.24
2023-03-29T23:14:04.845Z,65.77
2023-03-29T23:15:04.837Z,64.81
2023-03-29T23:16:04.861Z,65.56
2023-03-29T23:17:04.815Z,65.25
2023-03-29T23:18:04.826Z,66.64
2023-03-29T23:19:04.796Z,67.78
2023-03-29T23:20:04.881Z,66.05
2023-03-29T23:21:05.035Z,67.15
2023-03-29T23:22:04.728Z,67.66
2023-03-29T23:23:04.664Z,66.92
2023-03-29T23:24:04.662Z,67.42
2023-03-29T23:25:04.680Z,64.63
2023-03-29T23:26:04.640Z,66.26
2023-03-29T23:27:04.618Z,65.96
2023-03-29T23:28:04.623Z,65.67
2023-03-29T23:29:04.586Z,66.17
2023-03-29T23:30:04.616Z,66.78
2023-03-29T23:31:04.782Z,64.17
2023-03-29T23:32:04.525Z,65.30
2023-03-29T23:33:05.601Z,64.55
2023-03-29T23:34:05.499Z,64.46
2023-03-29T23:35:04.514Z,63.56
2023-03-29T23:36:04.597Z,66.45
2023-03-29T23:37:04.439Z,67.31
2023-03-29T23:38:04.438Z,65.85
2023-03-29T23:39:04.409Z,65.50
2023-03-29T23:40:04.422Z,66.85
2023-03-29T23:41:04.536Z,64.53
2023-03-29T23:42:04.371Z,64.03
2023-03-29T23:43:04.334Z,64.26
2023-03-29T23:44:04.332Z,65.83
2023-03-29T23:45:04.337Z,66.16
2023-03-29T23:46:04.306Z,65.27
2023-03-29T23:47:04.412Z,65.74
2023-03-29T23:48:04.265Z,65.13
2023-03-29T23:49:04.230Z,64.31
2023-03-29T23:50:05.244Z,65.00
2023-03-29T23:51:04.345Z,63.05
2023-03-29T23:52:04.191Z,65.67
2023-03-29T23:53:04.153Z,65.08
2023-03-29T23:54:05.278Z,63.89
2023-03-29T23:55:04.173Z,62.64
2023-03-29T23:56:04.133Z,64.05
2023-03-29T23:57:04.137Z,63.63
2023-03-29T23:58:04.091Z,63.99
2023-03-29T23:59:04.067Z,65.21
